Time;durP1;ratioP1;P1;durP2;ratioP2;P2;SDS_P1;SDS_P2;PMS_P1;PMS_P2;Temp;Humidity;BMP_temperature;BMP_pressure;BME280_temperature;BME280_humidity;BME280_pressure;Samples;Min_cycle;Max_cycle;Signal;HPM_P1;HPM_P2
2022/02/05 00:02:07;;;;;;;;;5.75;5.50;;;;;;;;4973013;28;45408;-70
2022/02/05 00:04:11;;;;;;;;;9.00;7.00;;;;;;;;4969140;28;45645;-69
2022/02/05 00:06:40;;;;;;;;;1.00;1.00;;;;;;;;4971025;28;45357;-69
2022/02/05 00:09:17;;;;;;;;;9.50;5.00;;;;;;;;4975263;28;45606;-71
2022/02/05 00:20:20;;;;;;;;;3.25;3.25;;;;;;;;4969674;28;45535;-72
2022/02/05 00:41:18;;;;;;;;;4.25;4.25;;;;;;;;5054619;28;45466;-71
2022/02/05 00:43:52;;;;;;;;;3.00;2.00;;;;;;;;5053429;28;45479;-71
2022/02/05 00:46:18;;;;;;;;;4.50;2.75;;;;;;;;5054158;28;46306;-72
2022/02/05 00:48:43;;;;;;;;;6.75;3.25;;;;;;;;5054295;28;45525;-71
2022/02/05 00:51:16;;;;;;;;;8.00;3.50;;;;;;;;5054411;28;45511;-70
2022/02/05 00:53:44;;;;;;;;;7.50;4.50;;;;;;;;5054129;28;45514;-71
2022/02/05 00:56:17;;;;;;;;;3.75;3.25;;;;;;;;5053515;28;45662;-71
2022/02/05 00:58:42;;;;;;;;;4.25;2.00;;;;;;;;5054436;28;45612;-72
2022/02/05 01:01:08;;;;;;;;;8.50;4.50;;;;;;;;5054958;28;45917;-71
2022/02/05 01:03:34;;;;;;;;;7.00;3.50;;;;;;;;5054543;28;45416;-71
2022/02/05 01:06:00;;;;;;;;;6.75;4.50;;;;;;;;5054245;28;46648;-71
2022/02/05 01:08:25;;;;;;;;;4.75;4.25;;;;;;;;5036085;28;45624;-71
2022/02/05 01:10:52;;;;;;;;;4.00;4.00;;;;;;;;5053952;28;45551;-71
2022/02/05 01:13:17;;;;;;;;;3.75;2.75;;;;;;;;5054439;28;45342;-72
2022/02/05 01:15:55;;;;;;;;;3.75;2.00;;;;;;;;5054145;28;45926;-71
2022/02/05 01:18:23;;;;;;;;;4.50;4.50;;;;;;;;5053867;28;45438;-72
2022/02/05 01:21:06;;;;;;;;;2.75;2.75;;;;;;;;5054077;28;45479;-71
2022/02/05 01:23:58;;;;;;;;;3.25;3.25;;;;;;;;5054260;28;45573;-71
2022/02/05 01:26:25;;;;;;;;;4.75;4.75;;;;;;;;5052933;28;46018;-72
2022/02/05 01:28:57;;;;;;;;;7.00;5.00;;;;;;;;5054004;28;45419;-71
2022/02/05 01:31:30;;;;;;;;;5.50;4.00;;;;;;;;5054234;28;45525;-71
2022/02/05 01:34:16;;;;;;;;;7.75;4.75;;;;;;;;5054172;28;45359;-71
2022/02/05 01:53:02;;;;;;;;;4.00;3.00;;;;;;;;5057598;28;45336;-72
2022/02/05 02:06:14;;;;;;;;;14.75;10.75;;;;;;;;5057436;28;45503;-71
2022/02/05 02:19:21;;;;;;;;;3.50;3.00;;;;;;;;5057038;28;45959;-71
2022/02/05 02:21:52;;;;;;;;;4.25;2.50;;;;;;;;5054847;28;47342;-71
2022/02/05 02:24:31;;;;;;;;;4.00;3.00;;;;;;;;5055674;28;45352;-72
2022/02/05 02:27:21;;;;;;;;;3.50;3.50;;;;;;;;5056761;28;45482;-71
2022/02/05 02:32:25;;;;;;;;;6.75;3.00;;;;;;;;5056781;28;45564;-71
2022/02/05 02:34:55;;;;;;;;;5.25;3.00;;;;;;;;5056529;28;45390;-70
2022/02/05 02:37:31;;;;;;;;;4.00;4.00;;;;;;;;5057115;28;45521;-71
2022/02/05 02:42:28;;;;;;;;;5.00;3.75;;;;;;;;5057254;28;45359;-70
2022/02/05 02:44:53;;;;;;;;;3.25;3.25;;;;;;;;5056351;28;45241;-70
2022/02/05 02:47:18;;;;;;;;;3.25;2.75;;;;;;;;5056498;28;45284;-71
2022/02/05 02:58:08;;;;;;;;;5.00;5.00;;;;;;;;5041411;28;45269;-71
2022/02/05 03:00:34;;;;;;;;;6.75;3.00;;;;;;;;5056583;28;46547;-70
2022/02/05 03:02:59;;;;;;;;;6.50;3.75;;;;;;;;5056791;28;45548;-71
2022/02/05 03:05:24;;;;;;;;;4.75;4.00;;;;;;;;5056220;28;45431;-71
2022/02/05 03:07:50;;;;;;;;;6.25;4.00;;;;;;;;5055751;28;45482;-71
2022/02/05 03:10:15;;;;;;;;;5.00;3.25;;;;;;;;5055530;28;47118;-70
2022/02/05 03:12:42;;;;;;;;;4.75;3.00;;;;;;;;5056221;28;45440;-70
2022/02/05 03:15:08;;;;;;;;;4.25;4.00;;;;;;;;5056851;28;45377;-72
2022/02/05 03:17:40;;;;;;;;;3.75;3.00;;;;;;;;5055731;28;45410;-72
2022/02/05 03:20:06;;;;;;;;;7.50;4.50;;;;;;;;5055848;28;46527;-70
2022/02/05 03:22:31;;;;;;;;;4.25;4.25;;;;;;;;5055586;28;45441;-72
2022/02/05 03:24:56;;;;;;;;;7.25;4.00;;;;;;;;5056453;28;45507;-71
2022/02/05 03:27:22;;;;;;;;;6.50;4.75;;;;;;;;5056830;28;45361;-72
2022/02/05 03:29:49;;;;;;;;;7.00;5.00;;;;;;;;5055643;28;46118;-71
2022/02/05 03:32:15;;;;;;;;;5.50;5.00;;;;;;;;5055534;28;45352;-72
2022/02/05 03:34:40;;;;;;;;;9.00;3.75;;;;;;;;5055675;28;45388;-71
2022/02/05 03:37:06;;;;;;;;;3.25;3.25;;;;;;;;5055708;28;45518;-71
2022/02/05 03:39:31;;;;;;;;;5.00;3.75;;;;;;;;5055690;28;46411;-72
2022/02/05 03:41:57;;;;;;;;;9.00;6.00;;;;;;;;5055411;28;45487;-71
2022/02/05 03:44:22;;;;;;;;;5.50;3.50;;;;;;;;5055775;28;45466;-72
2022/02/05 03:46:52;;;;;;;;;8.25;5.00;;;;;;;;5055783;28;45511;-71
2022/02/05 03:49:18;;;;;;;;;5.25;5.00;;;;;;;;5055911;28;47162;-71
2022/02/05 03:51:44;;;;;;;;;9.50;4.00;;;;;;;;5055542;28;45713;-71
2022/02/05 03:54:10;;;;;;;;;5.00;4.00;;;;;;;;5055808;28;45305;-70
2022/02/05 03:56:35;;;;;;;;;5.50;2.00;;;;;;;;5054790;28;45528;-72
2022/02/05 03:59:00;;;;;;;;;5.00;4.50;;;;;;;;5036724;28;47568;-71
2022/02/05 04:01:25;;;;;;;;;4.00;3.00;;;;;;;;5055651;28;45360;-71
2022/02/05 04:03:51;;;;;;;;;7.75;3.00;;;;;;;;5055604;28;45345;-71
2022/02/05 04:06:16;;;;;;;;;5.00;3.50;;;;;;;;5055768;28;45359;-71
2022/02/05 04:08:41;;;;;;;;;5.00;5.00;;;;;;;;5055004;28;45515;-72
2022/02/05 04:11:13;;;;;;;;;2.50;2.50;;;;;;;;5055394;28;45444;-69
2022/02/05 04:16:22;;;;;;;;;2.50;2.50;;;;;;;;5055361;28;45513;-70
2022/02/05 04:18:52;;;;;;;;;4.50;3.75;;;;;;;;5054591;28;46361;-71
2022/02/05 04:21:17;;;;;;;;;4.50;4.50;;;;;;;;5055329;28;45363;-71
2022/02/05 04:23:43;;;;;;;;;33.00;28.00;;;;;;;;5054822;28;45409;-71
2022/02/05 04:26:08;;;;;;;;;9.75;7.00;;;;;;;;5054349;28;45436;-72
2022/02/05 04:28:34;;;;;;;;;10.50;10.00;;;;;;;;5054417;28;46309;-72
2022/02/05 04:30:59;;;;;;;;;6.75;3.75;;;;;;;;5038818;28;45644;-71
2022/02/05 04:33:24;;;;;;;;;11.25;8.00;;;;;;;;5055416;28;45385;-71
2022/02/05 04:35:50;;;;;;;;;7.50;6.75;;;;;;;;5054540;28;45496;-71
2022/02/05 04:38:16;;;;;;;;;5.25;3.00;;;;;;;;5054462;28;45485;-71
2022/02/05 04:41:06;;;;;;;;;2.25;1.75;;;;;;;;5054636;28;45430;-72
2022/02/05 04:46:31;;;;;;;;;4.00;2.75;;;;;;;;5055026;28;45428;-71
2022/02/05 04:52:06;;;;;;;;;2.50;2.50;;;;;;;;5052342;28;45336;-72
2022/02/05 05:02:56;;;;;;;;;4.50;4.00;;;;;;;;5011524;28;45428;-71
2022/02/05 05:10:30;;;;;;;;;5.25;5.25;;;;;;;;5011324;28;46221;-71
2022/02/05 05:13:11;;;;;;;;;8.00;3.00;;;;;;;;5011624;28;45669;-70
2022/02/05 05:19:13;;;;;;;;;4.75;4.75;;;;;;;;5011924;28;45384;-70
2022/02/05 05:21:11;;;;;;;;;4.25;4.00;;;;;;;;5011770;28;45650;-71
2022/02/05 05:23:37;;;;;;;;;4.50;4.50;;;;;;;;5007987;28;45847;-70
2022/02/05 05:26:02;;;;;;;;;2.25;2.25;;;;;;;;5004090;28;45370;-71
2022/02/05 05:28:27;;;;;;;;;6.75;4.25;;;;;;;;5011614;28;45390;-71
2022/02/05 05:30:52;;;;;;;;;5.25;3.00;;;;;;;;5011389;28;46297;-71
2022/02/05 05:33:17;;;;;;;;;8.00;6.00;;;;;;;;5011729;28;45455;-71
2022/02/05 05:35:43;;;;;;;;;4.75;3.00;;;;;;;;5011591;28;45487;-71
2022/02/05 05:38:08;;;;;;;;;4.50;3.00;;;;;;;;5011547;28;45435;-72
2022/02/05 05:40:36;;;;;;;;;1.00;1.00;;;;;;;;5048822;28;46951;-71
2022/02/05 05:43:05;;;;;;;;;3.00;3.00;;;;;;;;5037887;28;45347;-70
2022/02/05 05:46:02;;;;;;;;;5.00;4.00;;;;;;;;5050104;28;45553;-71
2022/02/05 05:51:28;;;;;;;;;9.50;6.00;;;;;;;;5023291;28;45405;-70
2022/02/05 05:53:53;;;;;;;;;2.00;2.00;;;;;;;;5014335;28;45602;-72
2022/02/05 05:56:21;;;;;;;;;5.25;3.00;;;;;;;;5014012;28;45453;-72
2022/02/05 05:58:46;;;;;;;;;8.25;4.00;;;;;;;;5023387;28;45436;-71
2022/02/05 06:01:11;;;;;;;;;1.25;1.25;;;;;;;;5007819;28;46073;-71
2022/02/05 06:03:37;;;;;;;;;4.75;2.50;;;;;;;;5026810;28;45412;-71
2022/02/05 06:06:02;;;;;;;;;5.25;3.00;;;;;;;;5014667;28;45607;-73
2022/02/05 06:08:27;;;;;;;;;2.75;2.75;;;;;;;;5015279;28;45492;-71
2022/02/05 06:10:52;;;;;;;;;14.75;10.75;;;;;;;;5022329;28;45603;-70
2022/02/05 06:13:18;;;;;;;;;4.50;3.00;;;;;;;;5008388;28;45294;-70
2022/02/05 06:15:44;;;;;;;;;5.75;3.00;;;;;;;;5026530;28;45454;-70
2022/02/05 06:18:09;;;;;;;;;6.00;3.75;;;;;;;;5022029;28;45341;-71
2022/02/05 06:20:35;;;;;;;;;2.50;2.25;;;;;;;;5016200;28;46022;-71
2022/02/05 06:23:01;;;;;;;;;9.25;7.25;;;;;;;;5040834;28;45400;-72
2022/02/05 06:25:26;;;;;;;;;7.00;4.25;;;;;;;;5052927;28;45422;-72
2022/02/05 06:27:51;;;;;;;;;6.25;4.75;;;;;;;;5056096;28;45436;-71
2022/02/05 06:30:16;;;;;;;;;5.00;3.50;;;;;;;;5038648;28;47270;-70
2022/02/05 06:32:42;;;;;;;;;3.25;3.00;;;;;;;;5056491;28;45533;-71
2022/02/05 06:35:07;;;;;;;;;5.25;3.25;;;;;;;;5056588;28;45463;-71
2022/02/05 06:37:33;;;;;;;;;4.25;2.75;;;;;;;;5056242;28;45499;-71
2022/02/05 06:39:58;;;;;;;;;4.25;2.75;;;;;;;;5038149;28;45907;-71
2022/02/05 06:42:23;;;;;;;;;3.50;3.00;;;;;;;;5056844;28;45419;-71
2022/02/05 06:44:48;;;;;;;;;2.25;2.25;;;;;;;;5055514;28;45495;-71
2022/02/05 06:47:14;;;;;;;;;7.75;7.25;;;;;;;;5056121;28;45487;-70
2022/02/05 06:49:39;;;;;;;;;7.00;5.25;;;;;;;;5055944;28;45533;-72
2022/02/05 06:52:06;;;;;;;;;6.25;2.25;;;;;;;;5056075;28;45300;-72
2022/02/05 06:54:32;;;;;;;;;3.50;2.50;;;;;;;;5056648;28;45591;-72
2022/02/05 06:56:57;;;;;;;;;3.25;2.25;;;;;;;;5055670;28;45206;-71
2022/02/05 06:59:22;;;;;;;;;5.00;3.75;;;;;;;;5055064;28;45283;-70
2022/02/05 07:01:47;;;;;;;;;12.50;7.75;;;;;;;;5055696;28;45420;-71
2022/02/05 07:04:12;;;;;;;;;8.00;7.00;;;;;;;;5056185;28;45381;-70
2022/02/05 07:06:38;;;;;;;;;7.25;4.50;;;;;;;;5056091;28;45442;-71
2022/02/05 07:09:04;;;;;;;;;4.00;3.00;;;;;;;;5056115;28;46136;-71
2022/02/05 07:11:30;;;;;;;;;5.50;5.50;;;;;;;;5055722;28;45256;-72
2022/02/05 07:13:56;;;;;;;;;9.25;7.00;;;;;;;;5055283;28;45309;-71
2022/02/05 07:16:31;;;;;;;;;3.25;3.25;;;;;;;;5037143;28;45464;-70
2022/02/05 07:21:38;;;;;;;;;10.75;7.00;;;;;;;;5057213;28;45631;-71
2022/02/05 07:29:16;;;;;;;;;3.25;2.00;;;;;;;;5054914;28;45465;-71
2022/02/05 07:31:43;;;;;;;;;8.25;4.00;;;;;;;;5055250;28;45444;-70
2022/02/05 07:34:08;;;;;;;;;5.50;4.00;;;;;;;;5055493;28;45383;-71
2022/02/05 07:36:33;;;;;;;;;3.75;3.00;;;;;;;;5055472;28;45489;-71
2022/02/05 07:38:58;;;;;;;;;4.25;3.75;;;;;;;;5055325;28;46569;-71
2022/02/05 07:41:24;;;;;;;;;8.25;3.25;;;;;;;;5037378;28;45341;-73
2022/02/05 07:43:49;;;;;;;;;8.50;7.25;;;;;;;;5056277;28;45399;-72
2022/02/05 07:46:14;;;;;;;;;6.00;3.50;;;;;;;;5055214;28;45489;-72
2022/02/05 07:48:40;;;;;;;;;9.00;9.00;;;;;;;;5055194;28;46980;-71
2022/02/05 07:51:07;;;;;;;;;7.25;7.25;;;;;;;;5055528;28;45461;-71
2022/02/05 07:53:32;;;;;;;;;6.00;5.75;;;;;;;;5056139;28;45332;-72
2022/02/05 07:55:58;;;;;;;;;3.75;3.75;;;;;;;;5056092;28;45442;-69
2022/02/05 07:58:24;;;;;;;;;4.00;3.00;;;;;;;;5053574;28;47294;-71
2022/02/05 08:00:50;;;;;;;;;8.00;5.00;;;;;;;;5054092;28;45360;-70
2022/02/05 08:03:16;;;;;;;;;9.50;5.00;;;;;;;;5055126;28;45439;-70
2022/02/05 08:05:41;;;;;;;;;4.75;3.75;;;;;;;;5054043;28;45451;-71
2022/02/05 08:08:10;;;;;;;;;5.75;4.75;;;;;;;;5053919;28;46401;-70
2022/02/05 08:10:40;;;;;;;;;8.25;5.75;;;;;;;;5053956;28;45418;-70
2022/02/05 08:13:06;;;;;;;;;0.50;0.50;;;;;;;;5053755;28;45528;-69
2022/02/05 08:15:32;;;;;;;;;4.75;4.00;;;;;;;;5054756;28;45446;-70
2022/02/05 08:17:58;;;;;;;;;7.50;6.50;;;;;;;;5053907;28;45452;-69
2022/02/05 08:20:23;;;;;;;;;3.00;3.00;;;;;;;;5054166;28;45458;-70
2022/02/05 08:22:50;;;;;;;;;3.50;2.50;;;;;;;;5054254;28;45407;-70
2022/02/05 08:25:17;;;;;;;;;3.00;3.00;;;;;;;;5054157;28;45300;-71
2022/02/05 08:27:42;;;;;;;;;6.00;2.50;;;;;;;;5053365;28;47256;-71
2022/02/05 08:30:10;;;;;;;;;7.50;5.50;;;;;;;;5054295;28;45408;-74
2022/02/05 08:32:36;;;;;;;;;6.00;3.00;;;;;;;;5053637;28;45276;-73
2022/02/05 08:35:02;;;;;;;;;3.50;2.50;;;;;;;;5035327;28;45443;-72
2022/02/05 08:37:28;;;;;;;;;4.00;3.00;;;;;;;;5053447;28;46415;-71
2022/02/05 08:39:53;;;;;;;;;5.75;4.00;;;;;;;;5053380;28;45271;-71
2022/02/05 08:42:19;;;;;;;;;3.00;3.00;;;;;;;;5053790;28;45458;-73
2022/02/05 08:44:44;;;;;;;;;2.50;1.00;;;;;;;;5053711;28;45360;-73
2022/02/05 08:47:09;;;;;;;;;6.75;4.00;;;;;;;;5053495;28;46288;-73
2022/02/05 08:49:34;;;;;;;;;5.50;2.75;;;;;;;;5052619;28;45424;-73
2022/02/05 08:52:03;;;;;;;;;9.50;8.25;;;;;;;;5053595;28;45368;-73
2022/02/05 08:54:28;;;;;;;;;1.50;1.50;;;;;;;;5049404;28;45326;-73
2022/02/05 08:56:54;;;;;;;;;9.25;7.50;;;;;;;;5052617;28;46941;-72
2022/02/05 08:59:24;;;;;;;;;3.75;3.00;;;;;;;;5053185;28;45397;-72
2022/02/05 09:02:15;;;;;;;;;1.00;1.00;;;;;;;;5054144;28;45372;-69
2022/02/05 09:07:11;;;;;;;;;3.00;3.00;;;;;;;;5052936;28;46524;-70
2022/02/05 09:09:50;;;;;;;;;5.00;4.25;;;;;;;;5052823;28;45781;-71
2022/02/05 09:12:32;;;;;;;;;2.00;2.00;;;;;;;;5054122;28;45331;-70
2022/02/05 09:14:57;;;;;;;;;4.50;2.50;;;;;;;;5034536;28;45567;-71
2022/02/05 09:17:23;;;;;;;;;5.50;2.50;;;;;;;;5054329;28;46154;-71
2022/02/05 09:19:49;;;;;;;;;5.75;4.25;;;;;;;;5053484;28;45403;-71
2022/02/05 09:22:15;;;;;;;;;3.00;2.00;;;;;;;;5053108;28;45537;-72
2022/02/05 09:24:40;;;;;;;;;2.75;2.75;;;;;;;;5052908;28;45357;-71
2022/02/05 09:27:09;;;;;;;;;3.50;2.25;;;;;;;;5053238;28;46343;-70
2022/02/05 09:29:42;;;;;;;;;3.75;2.50;;;;;;;;5053114;28;45425;-70
2022/02/05 09:32:08;;;;;;;;;2.50;2.50;;;;;;;;5053125;28;45475;-68
2022/02/05 09:34:33;;;;;;;;;3.50;2.00;;;;;;;;5034459;28;47785;-72
2022/02/05 09:36:59;;;;;;;;;6.75;4.00;;;;;;;;5053100;28;45533;-72
2022/02/05 09:39:24;;;;;;;;;5.00;4.00;;;;;;;;5053358;28;45383;-72
2022/02/05 09:41:49;;;;;;;;;5.75;4.50;;;;;;;;5052923;28;45252;-71
2022/02/05 09:44:15;;;;;;;;;6.00;4.75;;;;;;;;5052831;28;45534;-74
2022/02/05 09:46:40;;;;;;;;;4.75;3.25;;;;;;;;5054363;28;46528;-77
2022/02/05 09:49:06;;;;;;;;;1.75;1.75;;;;;;;;5035035;28;45558;-73
2022/02/05 09:51:36;;;;;;;;;6.25;4.75;;;;;;;;5052835;28;45438;-73
2022/02/05 09:54:02;;;;;;;;;6.50;4.75;;;;;;;;5052235;28;45312;-74
2022/02/05 09:56:29;;;;;;;;;5.33;3.33;;;;;;;;5052160;28;45422;-73
2022/02/05 09:58:54;;;;;;;;;6.33;4.33;;;;;;;;5052106;28;45752;-72
2022/02/05 10:01:23;;;;;;;;;4.33;3.00;;;;;;;;5055437;28;45354;-74
2022/02/05 10:03:50;;;;;;;;;4.00;4.00;;;;;;;;5056111;28;45343;-74
2022/02/05 10:06:22;;;;;;;;;2.67;2.67;;;;;;;;5056061;28;46084;-73
2022/02/05 10:09:06;;;;;;;;;2.00;2.00;;;;;;;;5055188;28;45513;-77
2022/02/05 10:11:45;;;;;;;;;3.00;2.00;;;;;;;;5055678;28;45489;-78
2022/02/05 10:14:11;;;;;;;;;2.00;2.00;;;;;;;;5037371;28;45597;-77
2022/02/05 10:16:37;;;;;;;;;2.67;2.00;;;;;;;;5055523;28;46967;-76
2022/02/05 10:19:03;;;;;;;;;5.67;4.33;;;;;;;;5055535;28;45257;-76
2022/02/05 10:21:29;;;;;;;;;2.67;2.67;;;;;;;;5056463;28;45394;-71
2022/02/05 10:23:59;;;;;;;;;4.00;4.00;;;;;;;;5055560;28;45622;-72
2022/02/05 10:26:28;;;;;;;;;4.67;4.00;;;;;;;;5054973;28;45667;-73
2022/02/05 10:28:57;;;;;;;;;5.00;3.00;;;;;;;;5054594;28;45269;-72
2022/02/05 10:31:24;;;;;;;;;3.00;3.00;;;;;;;;5054705;28;45462;-71
2022/02/05 10:34:02;;;;;;;;;2.67;2.00;;;;;;;;5055463;28;45459;-72
2022/02/05 10:36:30;;;;;;;;;4.67;3.33;;;;;;;;5037254;28;46427;-71
2022/02/05 10:39:11;;;;;;;;;7.33;5.67;;;;;;;;5055261;28;45469;-72
2022/02/05 10:44:11;;;;;;;;;3.33;2.00;;;;;;;;5055254;28;45470;-70
2022/02/05 10:46:42;;;;;;;;;3.00;2.00;;;;;;;;5054615;28;47250;-70
2022/02/05 10:49:07;;;;;;;;;1.33;1.00;;;;;;;;5054945;28;45581;-71
2022/02/05 10:51:39;;;;;;;;;3.33;2.00;;;;;;;;5055147;28;45482;-70
2022/02/05 10:54:12;;;;;;;;;2.33;2.00;;;;;;;;5055420;28;45457;-70
2022/02/05 10:56:55;;;;;;;;;3.33;3.33;;;;;;;;5054387;28;46025;-71
2022/02/05 10:59:38;;;;;;;;;3.33;3.33;;;;;;;;5054909;28;45324;-71
2022/02/05 11:07:31;;;;;;;;;2.67;1.67;;;;;;;;5054409;28;45367;-72
2022/02/05 11:09:57;;;;;;;;;4.00;2.00;;;;;;;;5036529;28;45385;-72
2022/02/05 11:12:48;;;;;;;;;5.00;3.00;;;;;;;;5054199;28;45569;-71
2022/02/05 11:20:10;;;;;;;;;6.33;4.67;;;;;;;;5053569;28;45550;-79
2022/02/05 11:22:38;;;;;;;;;9.67;7.00;;;;;;;;5035778;28;45534;-76
2022/02/05 11:25:04;;;;;;;;;5.00;3.00;;;;;;;;5038215;28;45358;-76
2022/02/05 11:27:29;;;;;;;;;11.33;6.00;;;;;;;;5050409;28;46324;-74
2022/02/05 11:29:55;;;;;;;;;7.33;7.33;;;;;;;;5054108;28;45263;-75
2022/02/05 11:32:30;;;;;;;;;4.67;3.00;;;;;;;;5053718;28;45653;-70
2022/02/05 11:35:04;;;;;;;;;2.33;2.33;;;;;;;;5053869;28;45308;-72
2022/02/05 11:37:30;;;;;;;;;2.00;1.67;;;;;;;;5054042;28;46987;-71
2022/02/05 11:39:55;;;;;;;;;2.00;2.00;;;;;;;;5054497;28;45581;-71
2022/02/05 11:42:28;;;;;;;;;2.33;2.33;;;;;;;;5054979;28;45353;-72
2022/02/05 11:44:57;;;;;;;;;1.00;0.33;;;;;;;;5054327;28;45636;-76
2022/02/05 11:47:25;;;;;;;;;2.00;2.00;;;;;;;;5053920;28;46413;-73
2022/02/05 11:49:53;;;;;;;;;4.00;1.67;;;;;;;;5054094;28;45617;-73
2022/02/05 11:52:36;;;;;;;;;4.67;3.67;;;;;;;;5054446;28;45542;-73
2022/02/05 11:55:12;;;;;;;;;5.00;3.00;;;;;;;;5038361;28;45502;-74
2022/02/05 11:57:44;;;;;;;;;4.00;2.00;;;;;;;;5050757;28;47358;-73
2022/02/05 12:00:12;;;;;;;;;3.33;0.67;;;;;;;;5054127;28;45551;-73
2022/02/05 12:02:39;;;;;;;;;6.33;6.33;;;;;;;;5054341;28;45454;-73
2022/02/05 12:05:11;;;;;;;;;3.33;1.33;;;;;;;;5052530;28;45494;-73
2022/02/05 12:07:36;;;;;;;;;3.67;2.00;;;;;;;;5052760;28;46392;-74
2022/02/05 12:10:21;;;;;;;;;1.67;1.67;;;;;;;;5054373;28;45620;-73
2022/02/05 12:12:50;;;;;;;;;3.67;3.00;;;;;;;;5052250;28;45391;-74
2022/02/05 12:15:16;;;;;;;;;3.00;2.00;;;;;;;;5051969;28;45705;-74
2022/02/05 12:17:54;;;;;;;;;3.00;3.00;;;;;;;;5052809;28;46137;-73
2022/02/05 12:20:25;;;;;;;;;2.00;1.33;;;;;;;;5053773;28;45474;-73
2022/02/05 12:23:02;;;;;;;;;2.00;2.00;;;;;;;;5053305;28;45347;-74
2022/02/05 12:25:27;;;;;;;;;0.67;0.67;;;;;;;;5052932;28;45598;-73
2022/02/05 12:27:52;;;;;;;;;3.00;1.00;;;;;;;;5053770;28;45835;-73
2022/02/05 12:30:35;;;;;;;;;1.00;1.00;;;;;;;;5054057;28;45477;-72
2022/02/05 12:33:01;;;;;;;;;1.00;1.00;;;;;;;;5053371;28;45336;-73
2022/02/05 12:35:26;;;;;;;;;2.67;1.00;;;;;;;;5053296;28;45303;-73
2022/02/05 12:37:52;;;;;;;;;1.00;1.00;;;;;;;;5052989;28;47114;-73
2022/02/05 12:40:17;;;;;;;;;2.33;1.67;;;;;;;;5054159;28;45407;-73
2022/02/05 12:42:52;;;;;;;;;4.00;2.00;;;;;;;;5054503;28;45336;-74
2022/02/05 12:45:24;;;;;;;;;1.00;1.00;;;;;;;;5052820;28;45407;-73
2022/02/05 12:47:49;;;;;;;;;1.00;1.00;;;;;;;;5053113;28;46178;-74
2022/02/05 12:50:16;;;;;;;;;1.67;1.33;;;;;;;;5052874;28;45235;-72
2022/02/05 12:52:46;;;;;;;;;2.00;1.00;;;;;;;;5053176;28;45283;-73
2022/02/05 12:55:19;;;;;;;;;2.00;1.00;;;;;;;;5053104;28;45500;-73
2022/02/05 12:57:46;;;;;;;;;5.33;4.33;;;;;;;;5053232;28;46152;-73
2022/02/05 13:00:12;;;;;;;;;1.00;0.00;;;;;;;;5053269;28;45371;-73
2022/02/05 13:02:37;;;;;;;;;1.00;1.00;;;;;;;;5052244;28;45450;-74
2022/02/05 13:05:03;;;;;;;;;2.33;1.33;;;;;;;;5052180;28;45467;-73
2022/02/05 13:07:29;;;;;;;;;2.00;0.00;;;;;;;;5052558;28;45304;-73
2022/02/05 13:10:00;;;;;;;;;2.00;1.67;;;;;;;;5052668;28;45570;-73
2022/02/05 13:12:43;;;;;;;;;4.00;2.00;;;;;;;;5053614;28;45400;-72
2022/02/05 13:15:18;;;;;;;;;2.33;2.33;;;;;;;;5053055;28;45377;-73
2022/02/05 13:34:13;;;;;;;;;2.33;2.33;;;;;;;;5052266;28;45450;-73
2022/02/05 13:42:01;;;;;;;;;3.33;2.00;;;;;;;;5055549;28;45343;-74
2022/02/05 13:44:43;;;;;;;;;0.33;0.33;;;;;;;;5055856;28;45517;-74
2022/02/05 13:47:12;;;;;;;;;1.33;1.33;;;;;;;;5056001;28;45517;-73
2022/02/05 13:49:38;;;;;;;;;1.00;1.00;;;;;;;;5056419;28;46210;-72
2022/02/05 13:52:07;;;;;;;;;1.00;1.00;;;;;;;;5056338;28;45522;-74
2022/02/05 13:54:36;;;;;;;;;2.00;2.00;;;;;;;;5052932;28;45310;-73
2022/02/05 13:57:02;;;;;;;;;4.00;2.33;;;;;;;;5055597;28;45556;-73
2022/02/05 13:59:28;;;;;;;;;1.33;1.00;;;;;;;;5055551;28;46181;-73
2022/02/05 14:01:53;;;;;;;;;0.00;0.00;;;;;;;;5056026;28;45450;-73
2022/02/05 14:04:20;;;;;;;;;0.00;0.00;;;;;;;;5037736;28;45373;-74
2022/02/05 14:06:54;;;;;;;;;1.00;1.00;;;;;;;;5055681;28;45390;-72
2022/02/05 14:09:26;;;;;;;;;0.00;0.00;;;;;;;;5054994;28;45333;-74
2022/02/05 14:11:53;;;;;;;;;1.00;1.00;;;;;;;;5055130;28;45489;-70
2022/02/05 14:14:27;;;;;;;;;1.33;1.00;;;;;;;;5054744;28;45395;-73
2022/02/05 14:16:53;;;;;;;;;2.67;1.00;;;;;;;;5055341;28;45426;-73
2022/02/05 14:19:28;;;;;;;;;1.00;1.00;;;;;;;;5054711;28;47229;-74
2022/02/05 14:21:54;;;;;;;;;2.00;2.00;;;;;;;;5037094;28;45523;-73
2022/02/05 14:24:39;;;;;;;;;0.67;0.67;;;;;;;;5055887;28;46900;-73
2022/02/05 14:27:17;;;;;;;;;0.67;0.67;;;;;;;;5055056;28;45423;-74
2022/02/05 14:42:51;;;;;;;;;0.00;0.00;;;;;;;;5054817;28;45488;-74
2022/02/05 14:45:16;;;;;;;;;2.00;1.00;;;;;;;;5036997;28;45454;-73
2022/02/05 14:47:41;;;;;;;;;2.00;1.00;;;;;;;;5053077;28;45550;-72
2022/02/05 14:50:07;;;;;;;;;0.00;0.00;;;;;;;;5036559;28;46972;-73
2022/02/05 14:52:33;;;;;;;;;2.67;1.67;;;;;;;;5054919;28;45513;-73
2022/02/05 14:54:58;;;;;;;;;1.00;1.00;;;;;;;;5055284;28;45238;-73
2022/02/05 14:57:23;;;;;;;;;2.00;0.00;;;;;;;;5054969;28;45241;-73
2022/02/05 14:59:48;;;;;;;;;2.00;1.67;;;;;;;;5054937;28;45371;-73
2022/02/05 15:02:14;;;;;;;;;3.75;2.75;;;;;;;;5054750;28;45463;-72
2022/02/05 15:04:40;;;;;;;;;2.00;1.00;;;;;;;;5058456;28;45458;-72
2022/02/05 15:07:06;;;;;;;;;1.33;1.33;;;;;;;;5054786;28;45619;-73
2022/02/05 15:09:31;;;;;;;;;2.00;2.00;;;;;;;;5055392;28;46321;-74
2022/02/05 15:11:56;;;;;;;;;0.00;0.00;;;;;;;;5054227;28;45427;-74
2022/02/05 15:14:21;;;;;;;;;0.33;0.33;;;;;;;;5054720;28;45187;-75
2022/02/05 15:16:47;;;;;;;;;0.67;0.67;;;;;;;;5055176;28;45264;-72
2022/02/05 15:19:13;;;;;;;;;1.25;0.50;;;;;;;;5054101;28;47173;-72
2022/02/05 15:21:39;;;;;;;;;1.00;1.00;;;;;;;;5055215;28;45493;-73
2022/02/05 15:24:08;;;;;;;;;0.00;0.00;;;;;;;;5055214;28;45403;-74
2022/02/05 15:26:35;;;;;;;;;2.00;0.50;;;;;;;;5054020;28;45460;-73
2022/02/05 15:29:01;;;;;;;;;1.00;1.00;;;;;;;;5054797;28;47056;-74
2022/02/05 15:31:27;;;;;;;;;2.50;0.75;;;;;;;;5054923;28;45593;-73
2022/02/05 15:33:56;;;;;;;;;4.75;1.75;;;;;;;;5054701;28;45318;-72
2022/02/05 15:36:30;;;;;;;;;2.00;1.00;;;;;;;;5036765;28;45510;-73
2022/02/05 15:44:05;;;;;;;;;4.00;1.50;;;;;;;;5053611;28;45446;-73
2022/02/05 15:46:30;;;;;;;;;2.75;2.00;;;;;;;;5053487;28;45518;-73
2022/02/05 15:48:55;;;;;;;;;1.25;0.75;;;;;;;;5053814;28;46266;-71
2022/02/05 15:51:23;;;;;;;;;1.00;1.00;;;;;;;;5054285;28;45339;-74
2022/02/05 15:53:55;;;;;;;;;2.00;2.00;;;;;;;;5053887;28;45407;-71
2022/02/05 15:59:07;;;;;;;;;2.50;1.25;;;;;;;;5053146;28;45785;-72
2022/02/05 16:01:32;;;;;;;;;1.50;0.00;;;;;;;;5053518;28;45364;-72
2022/02/05 16:03:57;;;;;;;;;0.50;0.50;;;;;;;;5053679;28;45375;-73
2022/02/05 16:06:23;;;;;;;;;2.00;1.00;;;;;;;;5055151;28;45324;-72
2022/02/05 16:08:48;;;;;;;;;2.00;1.00;;;;;;;;5054199;28;46225;-72
2022/02/05 16:11:17;;;;;;;;;0.75;0.75;;;;;;;;5053958;28;45364;-72
2022/02/05 16:13:42;;;;;;;;;4.00;2.25;;;;;;;;5054230;28;45457;-73
2022/02/05 16:16:07;;;;;;;;;3.25;3.25;;;;;;;;5053775;28;45343;-71
2022/02/05 16:18:33;;;;;;;;;1.00;1.00;;;;;;;;5053654;28;46435;-71
2022/02/05 16:20:59;;;;;;;;;2.00;1.00;;;;;;;;5053460;28;45411;-72
2022/02/05 16:23:24;;;;;;;;;1.25;1.25;;;;;;;;5054210;28;45334;-71
2022/02/05 16:25:49;;;;;;;;;4.25;3.00;;;;;;;;5052944;28;45453;-70
2022/02/05 16:28:14;;;;;;;;;2.00;2.00;;;;;;;;5053426;28;46644;-72
2022/02/05 16:30:41;;;;;;;;;4.25;1.00;;;;;;;;5054072;28;45343;-69
2022/02/05 16:33:12;;;;;;;;;3.25;3.25;;;;;;;;5053998;28;45400;-72
2022/02/05 16:35:44;;;;;;;;;3.25;3.00;;;;;;;;5053155;28;45297;-70
2022/02/05 16:38:17;;;;;;;;;3.75;3.75;;;;;;;;5053372;28;46227;-73
2022/02/05 16:40:42;;;;;;;;;2.50;2.00;;;;;;;;5052995;28;45473;-72
2022/02/05 16:43:07;;;;;;;;;5.00;4.00;;;;;;;;5054154;28;45400;-71
2022/02/05 16:45:36;;;;;;;;;2.00;1.00;;;;;;;;5054248;28;45440;-72
2022/02/05 16:48:02;;;;;;;;;5.00;3.00;;;;;;;;5053870;28;46218;-72
2022/02/05 16:50:28;;;;;;;;;5.25;2.50;;;;;;;;5053136;28;45557;-71
2022/02/05 16:52:55;;;;;;;;;4.50;4.50;;;;;;;;5053177;28;45541;-71
2022/02/05 16:55:21;;;;;;;;;4.50;3.00;;;;;;;;5052982;28;45277;-72
2022/02/05 16:57:46;;;;;;;;;3.00;3.00;;;;;;;;5053347;28;46295;-71
2022/02/05 17:00:11;;;;;;;;;3.00;3.00;;;;;;;;5035886;28;45897;-73
2022/02/05 17:02:39;;;;;;;;;5.00;4.00;;;;;;;;5053242;28;45509;-72
2022/02/05 17:05:05;;;;;;;;;3.75;3.00;;;;;;;;5052659;28;45387;-72
2022/02/05 17:07:31;;;;;;;;;8.50;6.25;;;;;;;;5052349;28;46441;-71
2022/02/05 17:09:56;;;;;;;;;8.25;6.00;;;;;;;;5051961;28;45271;-72
2022/02/05 17:12:21;;;;;;;;;6.00;5.00;;;;;;;;5052976;28;45336;-72
2022/02/05 17:14:52;;;;;;;;;3.75;3.75;;;;;;;;5052788;28;45419;-71
2022/02/05 17:17:18;;;;;;;;;10.00;5.25;;;;;;;;5053015;28;46125;-72
2022/02/05 17:19:49;;;;;;;;;4.50;3.00;;;;;;;;5053352;28;45403;-72
2022/02/05 17:22:15;;;;;;;;;7.50;5.00;;;;;;;;5052684;28;45344;-72
2022/02/05 17:24:40;;;;;;;;;4.00;4.00;;;;;;;;5052718;28;45359;-71
2022/02/05 17:27:05;;;;;;;;;6.00;4.00;;;;;;;;5052195;28;46289;-71
2022/02/05 17:29:35;;;;;;;;;5.00;4.25;;;;;;;;5052117;28;45382;-72
2022/02/05 17:32:04;;;;;;;;;3.00;3.00;;;;;;;;5052722;28;46906;-72
2022/02/05 17:34:29;;;;;;;;;6.50;4.75;;;;;;;;5052422;28;45325;-72
2022/02/05 17:36:54;;;;;;;;;4.25;4.25;;;;;;;;5034081;28;46153;-70
2022/02/05 17:39:19;;;;;;;;;4.00;4.00;;;;;;;;5053899;28;45288;-71
2022/02/05 17:41:44;;;;;;;;;7.00;5.00;;;;;;;;5053914;28;45778;-73